createdAt,value
2022-09-28T00:00:12.846Z,9.99
2022-09-28T00:01:12.836Z,9.99
2022-09-28T00:02:12.936Z,9.89
2022-09-28T00:03:12.925Z,9.99
2022-09-28T00:04:12.804Z,9.94
2022-09-28T00:05:12.790Z,9.99
2022-09-28T00:06:12.789Z,9.96
2022-09-28T00:07:12.774Z,10.05
2022-09-28T00:08:12.769Z,10.05
2022-09-28T00:09:17.966Z,9.91
2022-09-28T00:10:12.738Z,10.02
2022-09-28T00:11:12.750Z,10.07
2022-09-28T00:12:12.731Z,10.01
2022-09-28T00:13:12.703Z,9.99
2022-09-28T00:14:12.706Z,9.96
2022-09-28T00:15:12.747Z,10.02
2022-09-28T00:16:12.725Z,10.02
2022-09-28T00:17:12.661Z,9.97
2022-09-28T00:18:12.648Z,10.07
2022-09-28T00:19:12.653Z,10.09
2022-09-28T00:20:17.653Z,9.99
2022-09-28T00:21:12.613Z,10.04
2022-09-28T00:22:12.606Z,9.97
2022-09-28T00:23:12.592Z,10.08
2022-09-28T00:24:12.651Z,10.01
2022-09-28T00:25:12.573Z,10.02
2022-09-28T00:26:12.952Z,9.97
2022-09-28T00:27:12.566Z,9.91
2022-09-28T00:28:12.545Z,9.91
2022-09-28T00:29:12.548Z,9.99
2022-09-28T00:30:12.517Z,9.99
2022-09-28T00:31:17.562Z,10.04
2022-09-28T00:32:12.493Z,9.97
2022-09-28T00:33:12.487Z,10.01
2022-09-28T00:34:12.484Z,9.93
2022-09-28T00:35:12.459Z,9.94
2022-09-28T00:36:12.449Z,10.14
2022-09-28T00:37:12.439Z,10.09
2022-09-28T00:38:12.452Z,9.96
2022-09-28T00:39:12.433Z,9.97
2022-09-28T00:40:12.405Z,9.99
2022-09-28T00:41:12.391Z,10.07
2022-09-28T00:42:17.431Z,9.96
2022-09-28T00:43:12.371Z,9.93
2022-09-28T00:44:12.388Z,10.02
2022-09-28T00:45:12.354Z,9.97
2022-09-28T00:46:12.410Z,9.93
2022-09-28T00:47:12.325Z,9.99
2022-09-28T00:48:12.333Z,10.04
2022-09-28T00:49:12.317Z,10.08
2022-09-28T00:50:12.294Z,10.01
2022-09-28T00:51:12.289Z,9.91
2022-09-28T00:52:12.275Z,9.96
2022-09-28T00:53:17.281Z,9.97
2022-09-28T00:54:12.264Z,10.02
2022-09-28T00:55:12.238Z,9.96
2022-09-28T00:56:12.228Z,10.01
2022-09-28T00:57:12.215Z,10.08
2022-09-28T00:58:12.225Z,10.01
2022-09-28T00:59:12.205Z,9.96
2022-09-28T01:00:12.189Z,10.02
2022-09-28T01:01:12.278Z,9.99
2022-09-28T01:02:12.264Z,9.97
2022-09-28T01:03:12.148Z,10.07
2022-09-28T01:04:17.177Z,9.96
2022-09-28T01:05:12.133Z,10.11
2022-09-28T01:06:12.122Z,10.04
2022-09-28T01:07:12.117Z,10.07
2022-09-28T01:08:12.095Z,9.94
2022-09-28T01:09:12.111Z,10.04
2022-09-28T01:10:12.073Z,10.05
2022-09-28T01:11:12.079Z,10.12
2022-09-28T01:12:12.064Z,10.12
2022-09-28T01:13:12.043Z,10.05
2022-09-28T01:14:12.063Z,10.15
2022-09-28T01:15:17.042Z,10.11
2022-09-28T01:16:12.098Z,10.15
2022-09-28T01:17:12.009Z,10.12
2022-09-28T01:18:12.024Z,10.20
2022-09-28T01:19:11.985Z,10.17
2022-09-28T01:20:11.964Z,10.08
2022-09-28T01:21:11.950Z,10.11
2022-09-28T01:22:11.946Z,10.18
2022-09-28T01:23:11.928Z,10.17
2022-09-28T01:24:11.930Z,10.07
2022-09-28T01:25:11.905Z,10.18
2022-09-28T01:26:16.918Z,10.14
2022-09-28T01:27:11.884Z,10.17
2022-09-28T01:28:11.892Z,10.17
2022-09-28T01:29:11.883Z,10.12
2022-09-28T01:30:11.875Z,10.14
2022-09-28T01:31:11.891Z,10.23
2022-09-28T01:32:11.840Z,10.12
2022-09-28T01:33:11.878Z,10.23
2022-09-28T01:34:11.823Z,10.20
2022-09-28T01:35:11.795Z,10.18
2022-09-28T01:36:11.787Z,10.14
2022-09-28T01:37:16.794Z,10.12
2022-09-28T01:38:11.763Z,10.15
2022-09-28T01:39:11.762Z,10.12
2022-09-28T01:40:11.927Z,10.02
2022-09-28T01:41:11.728Z,10.09
2022-09-28T01:42:11.720Z,10.20
2022-09-28T01:43:11.706Z,10.17
2022-09-28T01:44:11.724Z,10.17
2022-09-28T01:45:11.689Z,10.18
2022-09-28T01:46:11.755Z,10.18
2022-09-28T01:47:11.661Z,10.12
2022-09-28T01:48:16.677Z,10.18
2022-09-28T01:49:11.638Z,10.23
2022-09-28T01:50:11.654Z,10.27
2022-09-28T01:51:11.616Z,10.22
2022-09-28T01:52:11.607Z,10.17
2022-09-28T01:53:11.594Z,10.18
2022-09-28T01:54:11.621Z,10.27
2022-09-28T01:55:11.585Z,10.14
2022-09-28T01:56:11.564Z,10.26
2022-09-28T01:57:11.550Z,10.11
2022-09-28T01:58:11.545Z,10.22
2022-09-28T01:59:16.766Z,10.15
2022-09-28T02:00:11.521Z,10.25
2022-09-28T02:01:11.603Z,10.18
2022-09-28T02:02:11.583Z,10.25
2022-09-28T02:03:11.485Z,10.17
2022-09-28T02:04:11.475Z,10.20
2022-09-28T02:05:11.472Z,10.18
2022-09-28T02:06:11.459Z,10.12
2022-09-28T02:07:11.442Z,10.14
2022-09-28T02:08:11.434Z,10.20
2022-09-28T02:09:11.417Z,10.25
2022-09-28T02:10:16.441Z,10.20
2022-09-28T02:11:11.395Z,10.14
2022-09-28T02:12:11.396Z,10.14
2022-09-28T02:13:11.407Z,10.23
2022-09-28T02:14:11.366Z,10.18
2022-09-28T02:15:11.363Z,10.26
2022-09-28T02:16:11.403Z,10.32
2022-09-28T02:17:11.340Z,10.26
2022-09-28T02:18:11.343Z,10.12
2022-09-28T02:19:11.324Z,10.23
2022-09-28T02:20:11.307Z,10.18
2022-09-28T02:21:16.311Z,10.17
2022-09-28T02:22:11.278Z,10.12
2022-09-28T02:23:11.271Z,10.11
2022-09-28T02:24:11.255Z,10.15
2022-09-28T02:25:11.254Z,10.11
2022-09-28T02:26:11.262Z,10.15
2022-09-28T02:27:11.224Z,10.15
2022-09-28T02:28:11.209Z,10.18
2022-09-28T02:29:11.326Z,10.17
2022-09-28T02:30:11.187Z,10.12
2022-09-28T02:31:11.215Z,10.20
2022-09-28T02:32:16.187Z,10.17
2022-09-28T02:33:11.161Z,10.18
2022-09-28T02:34:11.180Z,10.11
2022-09-28T02:35:11.135Z,10.14
2022-09-28T02:36:11.124Z,10.05
2022-09-28T02:37:11.113Z,10.14
2022-09-28T02:38:11.115Z,10.14
2022-09-28T02:39:11.155Z,10.09
2022-09-28T02:40:11.081Z,10.15
2022-09-28T02:41:11.068Z,10.08
2022-09-28T02:42:11.069Z,10.09
2022-09-28T02:43:16.152Z,9.97
2022-09-28T02:44:11.043Z,10.07
2022-09-28T02:45:11.027Z,9.99
2022-09-28T02:46:11.063Z,10.08
2022-09-28T02:47:11.002Z,9.93
2022-09-28T02:48:10.997Z,10.07
2022-09-28T02:49:21.356Z,9.96
2022-09-28T02:50:11.987Z,9.97
2022-09-28T02:51:10.957Z,9.99
2022-09-28T02:52:10.947Z,9.96
2022-09-28T02:53:10.941Z,10.05
2022-09-28T02:54:18.780Z,10.09
2022-09-28T02:55:10.912Z,10.14
2022-09-28T02:56:10.905Z,10.07
2022-09-28T02:57:10.891Z,10.01
2022-09-28T02:58:10.881Z,9.93
2022-09-28T02:59:10.933Z,9.96
2022-09-28T03:00:10.884Z,10.05
2022-09-28T03:01:10.885Z,9.97
2022-09-28T03:02:10.949Z,9.96
2022-09-28T03:03:10.858Z,10.02
2022-09-28T03:04:10.813Z,10.07
2022-09-28T03:05:15.861Z,9.96
2022-09-28T03:06:10.794Z,9.94
2022-09-28T03:07:10.782Z,10.12
2022-09-28T03:08:10.777Z,10.08
2022-09-28T03:09:10.823Z,9.94
2022-09-28T03:10:10.758Z,9.97
2022-09-28T03:11:10.733Z,9.94
2022-09-28T03:12:10.734Z,10.04
2022-09-28T03:13:10.725Z,10.02
2022-09-28T03:14:10.707Z,10.09
2022-09-28T03:15:10.718Z,10.07
2022-09-28T03:16:15.791Z,10.18
2022-09-28T03:17:10.671Z,10.05
2022-09-28T03:18:10.662Z,10.04
2022-09-28T03:19:10.692Z,10.14
2022-09-28T03:20:10.648Z,10.09
2022-09-28T03:21:10.652Z,10.12
2022-09-28T03:22:10.617Z,10.12
2022-09-28T03:23:24.805Z,10.17
2022-09-28T03:24:11.609Z,10.05
2022-09-28T03:25:10.637Z,10.05
2022-09-28T03:26:10.569Z,9.97
2022-09-28T03:27:15.580Z,10.05
2022-09-28T03:28:10.549Z,9.94
2022-09-28T03:29:10.575Z,10.02
2022-09-28T03:30:10.534Z,10.08
2022-09-28T03:31:10.651Z,10.02
2022-09-28T03:32:10.505Z,10.02
2022-09-28T03:33:10.495Z,9.89
2022-09-28T03:34:10.487Z,9.84
2022-09-28T03:35:10.544Z,9.94
2022-09-28T03:36:10.477Z,10.04
2022-09-28T03:37:10.468Z,9.96
2022-09-28T03:38:15.460Z,9.89
2022-09-28T03:39:10.457Z,9.96
2022-09-28T03:40:10.427Z,10.01
2022-09-28T03:41:10.407Z,10.07
2022-09-28T03:42:10.392Z,9.91
2022-09-28T03:43:10.384Z,9.94
2022-09-28T03:44:10.370Z,9.93
2022-09-28T03:45:10.369Z,9.96
2022-09-28T03:46:10.478Z,10.01
2022-09-28T03:47:10.342Z,9.97
2022-09-28T03:48:10.327Z,9.97
2022-09-28T03:49:15.404Z,10.02
2022-09-28T03:50:10.314Z,9.93
2022-09-28T03:51:10.297Z,9.97
2022-09-28T03:52:10.284Z,9.97
2022-09-28T03:53:10.289Z,9.94
2022-09-28T03:54:10.271Z,10.08
2022-09-28T03:55:10.250Z,10.04
2022-09-28T03:56:10.237Z,10.01
2022-09-28T03:57:10.226Z,9.97
2022-09-28T03:58:10.221Z,10.08
2022-09-28T03:59:10.265Z,9.96
2022-09-28T04:00:15.215Z,10.01
2022-09-28T04:01:14.124Z,10.04
2022-09-28T04:02:11.223Z,10.05
2022-09-28T04:03:10.158Z,10.02
2022-09-28T04:04:10.179Z,10.04
2022-09-28T04:05:10.137Z,10.07
2022-09-28T04:06:10.132Z,10.08
2022-09-28T04:07:10.126Z,10.05
2022-09-28T04:08:10.112Z,10.08
2022-09-28T04:09:10.137Z,10.01
2022-09-28T04:10:10.083Z,10.02
2022-09-28T04:11:15.097Z,10.05
2022-09-28T04:12:10.062Z,10.05
2022-09-28T04:13:10.047Z,10.08
2022-09-28T04:14:10.069Z,10.09
2022-09-28T04:15:10.025Z,10.07
2022-09-28T04:16:10.054Z,10.07
2022-09-28T04:17:10.003Z,9.99
2022-09-28T04:18:09.999Z,10.05
2022-09-28T04:19:10.050Z,10.05
2022-09-28T04:20:09.972Z,10.01
2022-09-28T04:21:10.039Z,10.05
2022-09-28T04:22:14.973Z,9.99
2022-09-28T04:23:09.944Z,10.12
2022-09-28T04:24:09.938Z,10.04
2022-09-28T04:25:10.959Z,10.15
2022-09-28T04:26:09.906Z,10.12
2022-09-28T04:27:09.901Z,10.02
2022-09-28T04:28:09.897Z,10.02
2022-09-28T04:29:09.913Z,10.07
2022-09-28T04:30:09.860Z,10.05
2022-09-28T04:31:09.854Z,9.96
2022-09-28T04:32:09.839Z,9.96
2022-09-28T04:33:14.852Z,9.94
2022-09-28T04:34:09.833Z,10.04
2022-09-28T04:35:09.828Z,10.01
2022-09-28T04:36:09.794Z,10.02
2022-09-28T04:37:09.784Z,10.12
2022-09-28T04:38:09.780Z,10.09
2022-09-28T04:39:09.793Z,10.14
2022-09-28T04:40:09.761Z,10.14
2022-09-28T04:41:09.764Z,10.14
2022-09-28T04:42:09.736Z,10.14
2022-09-28T04:43:09.718Z,10.11
2022-09-28T04:44:14.740Z,10.15
2022-09-28T04:45:09.706Z,10.20
2022-09-28T04:46:09.741Z,10.11
2022-09-28T04:47:09.680Z,10.18
2022-09-28T04:48:09.667Z,10.08
2022-09-28T04:49:09.742Z,10.14
2022-09-28T04:50:09.674Z,10.11
2022-09-28T04:51:09.634Z,10.15
2022-09-28T04:52:11.015Z,10.08
2022-09-28T04:53:09.605Z,10.05
2022-09-28T04:54:09.597Z,10.14
2022-09-28T04:55:14.619Z,10.09
2022-09-28T04:56:09.576Z,10.07
2022-09-28T04:57:09.580Z,10.09
2022-09-28T04:58:09.557Z,10.12
2022-09-28T04:59:09.546Z,10.11
2022-09-28T05:00:09.544Z,10.18
2022-09-28T05:01:09.560Z,10.18
2022-09-28T05:02:09.578Z,10.12
2022-09-28T05:03:09.514Z,10.12
2022-09-28T05:04:09.487Z,10.14
2022-09-28T05:05:09.483Z,10.14
2022-09-28T05:06:14.486Z,10.18
2022-09-28T05:07:09.452Z,10.07
2022-09-28T05:08:09.445Z,10.01
2022-09-28T05:09:09.442Z,10.09
2022-09-28T05:10:09.437Z,9.94
2022-09-28T05:11:09.412Z,9.94
2022-09-28T05:12:09.403Z,9.91
2022-09-28T05:13:09.484Z,9.94
2022-09-28T05:14:09.374Z,9.99
2022-09-28T05:15:09.382Z,10.07
2022-09-28T05:16:09.429Z,10.04
2022-09-28T05:17:14.365Z,10.09
2022-09-28T05:18:09.331Z,10.14
2022-09-28T05:19:09.322Z,10.11
2022-09-28T05:20:09.372Z,10.09
2022-09-28T05:21:09.306Z,10.12
2022-09-28T05:22:09.296Z,10.14
2022-09-28T05:23:09.272Z,10.18
2022-09-28T05:24:09.268Z,10.17
2022-09-28T05:25:09.251Z,10.17
2022-09-28T05:26:09.257Z,10.18
2022-09-28T05:27:09.229Z,10.33
2022-09-28T05:28:14.258Z,10.15
2022-09-28T05:29:09.209Z,10.25
2022-09-28T05:30:09.197Z,10.15
2022-09-28T05:31:09.195Z,10.22
2022-09-28T05:32:09.230Z,10.17
2022-09-28T05:33:09.169Z,10.20
2022-09-28T05:34:09.154Z,10.14
2022-09-28T05:35:09.147Z,10.20
2022-09-28T05:36:09.145Z,10.18
2022-09-28T05:37:09.231Z,10.29
2022-09-28T05:38:09.127Z,10.20
2022-09-28T05:39:14.215Z,10.25
2022-09-28T05:40:09.088Z,10.33
2022-09-28T05:41:09.179Z,10.23
2022-09-28T05:42:09.063Z,10.22
2022-09-28T05:43:09.053Z,10.26
2022-09-28T05:44:09.067Z,10.33
2022-09-28T05:45:09.028Z,10.27
2022-09-28T05:46:09.084Z,10.27
2022-09-28T05:47:09.008Z,10.29
2022-09-28T05:48:08.997Z,10.29
2022-09-28T05:49:08.982Z,10.36
2022-09-28T05:50:14.003Z,10.34
2022-09-28T05:51:08.978Z,10.40
2022-09-28T05:52:08.953Z,10.34
2022-09-28T05:53:08.937Z,10.32
2022-09-28T05:54:08.933Z,10.33
2022-09-28T05:55:08.914Z,10.33
2022-09-28T05:56:08.952Z,10.32
2022-09-28T05:57:08.907Z,10.32
2022-09-28T05:58:08.887Z,10.34
2022-09-28T05:59:08.888Z,10.44
2022-09-28T06:00:08.887Z,10.41
2022-09-28T06:01:13.939Z,10.45
2022-09-28T06:02:08.916Z,10.44
2022-09-28T06:03:09.587Z,10.42
2022-09-28T06:04:08.819Z,10.34
2022-09-28T06:05:08.806Z,10.41
2022-09-28T06:06:08.860Z,10.40
2022-09-28T06:07:08.785Z,10.38
2022-09-28T06:08:08.771Z,10.45
2022-09-28T06:09:08.764Z,10.45
2022-09-28T06:10:08.748Z,10.40
2022-09-28T06:11:08.750Z,10.42
2022-09-28T06:12:13.751Z,10.44
2022-09-28T06:13:08.736Z,10.41
2022-09-28T06:14:08.704Z,10.45
2022-09-28T06:15:08.691Z,10.38
2022-09-28T06:16:08.814Z,10.48
2022-09-28T06:17:08.725Z,10.41
2022-09-28T06:18:08.743Z,10.44
2022-09-28T06:19:08.645Z,10.41
2022-09-28T06:20:08.638Z,10.41
2022-09-28T06:21:08.642Z,10.53
2022-09-28T06:22:08.617Z,10.56
2022-09-28T06:23:13.665Z,10.52
2022-09-28T06:24:08.593Z,10.59
2022-09-28T06:25:08.605Z,10.56
2022-09-28T06:26:08.582Z,10.53
2022-09-28T06:27:08.560Z,10.66
2022-09-28T06:28:08.550Z,10.61
2022-09-28T06:29:08.534Z,10.61
2022-09-28T06:30:08.536Z,10.67
2022-09-28T06:31:08.669Z,10.63
2022-09-28T06:32:08.538Z,10.66
2022-09-28T06:33:08.490Z,10.70
2022-09-28T06:34:13.578Z,10.73
2022-09-28T06:35:08.468Z,10.78
2022-09-28T06:36:08.493Z,10.74
2022-09-28T06:37:08.456Z,10.81
2022-09-28T06:38:08.433Z,10.84
2022-09-28T06:39:08.433Z,10.79
2022-09-28T06:40:08.415Z,10.85
2022-09-28T06:41:08.437Z,10.88
2022-09-28T06:42:08.405Z,10.89
2022-09-28T06:43:08.390Z,10.81
2022-09-28T06:44:08.369Z,10.82
2022-09-28T06:45:13.389Z,10.82
2022-09-28T06:46:08.468Z,10.85
2022-09-28T06:47:08.330Z,10.85
2022-09-28T06:48:08.341Z,10.81
2022-09-28T06:49:08.307Z,10.82
2022-09-28T06:50:08.297Z,10.85
2022-09-28T06:51:08.294Z,10.84
2022-09-28T06:52:08.277Z,10.86
2022-09-28T06:53:08.262Z,10.79
2022-09-28T06:54:08.276Z,10.86
2022-09-28T06:55:08.249Z,10.82
2022-09-28T06:56:13.251Z,10.89
2022-09-28T06:57:08.216Z,10.78
2022-09-28T06:58:08.209Z,10.71
2022-09-28T06:59:08.194Z,10.74
2022-09-28T07:00:08.229Z,10.73
2022-09-28T07:01:08.261Z,10.78
2022-09-28T07:02:08.246Z,10.79
2022-09-28T07:03:08.152Z,10.76
2022-09-28T07:04:08.160Z,10.68
2022-09-28T07:05:08.128Z,10.71
2022-09-28T07:06:08.134Z,10.73
2022-09-28T07:07:13.135Z,10.73
2022-09-28T07:08:08.096Z,10.76
2022-09-28T07:09:26.296Z,10.82
2022-09-28T07:10:09.071Z,10.84
2022-09-28T07:11:08.116Z,10.97
2022-09-28T07:12:08.050Z,11.07
2022-09-28T07:13:11.899Z,11.15
2022-09-28T07:14:11.016Z,11.14
2022-09-28T07:15:08.029Z,11.29
2022-09-28T07:16:08.093Z,11.35
2022-09-28T07:17:13.715Z,11.47
2022-09-28T07:18:14.053Z,11.42
2022-09-28T07:19:07.972Z,11.42
2022-09-28T07:20:17.184Z,11.36
2022-09-28T07:21:14.520Z,11.40
2022-09-28T07:22:08.972Z,11.43
2022-09-28T07:23:18.217Z,11.36
2022-09-28T07:24:08.915Z,11.29
2022-09-28T07:25:07.903Z,11.25
2022-09-28T07:26:09.331Z,11.36
2022-09-28T07:27:07.882Z,11.18
2022-09-28T07:28:07.873Z,11.21
2022-09-28T07:29:12.881Z,11.18
2022-09-28T07:30:07.890Z,11.17
2022-09-28T07:31:07.982Z,11.29
2022-09-28T07:32:07.836Z,11.27
2022-09-28T07:33:07.816Z,11.25
2022-09-28T07:34:07.801Z,11.35
2022-09-28T07:35:07.795Z,11.28
2022-09-28T07:36:07.816Z,11.29
2022-09-28T07:37:07.770Z,11.32
2022-09-28T07:38:07.758Z,11.39
2022-09-28T07:39:07.750Z,11.49
2022-09-28T07:40:12.755Z,11.51
2022-09-28T07:41:07.860Z,11.51
2022-09-28T07:42:07.739Z,11.61
2022-09-28T07:43:07.724Z,11.67
2022-09-28T07:44:07.767Z,11.78
2022-09-28T07:45:07.694Z,11.75
2022-09-28T07:46:07.728Z,11.85
2022-09-28T07:47:07.665Z,11.67
2022-09-28T07:48:07.689Z,11.75
2022-09-28T07:49:11.370Z,11.69
2022-09-28T07:50:07.623Z,11.62
2022-09-28T07:51:12.676Z,11.67
2022-09-28T07:52:07.606Z,11.60
2022-09-28T07:53:07.591Z,11.62
2022-09-28T07:54:07.583Z,11.54
2022-09-28T07:55:07.683Z,11.58
2022-09-28T07:56:07.578Z,11.60
2022-09-28T07:57:07.546Z,11.64
2022-09-28T07:58:07.540Z,11.94
2022-09-28T07:59:07.523Z,12.13
2022-09-28T08:00:07.529Z,12.21
2022-09-28T08:01:07.593Z,12.05
2022-09-28T08:02:12.737Z,12.01
2022-09-28T08:03:07.483Z,12.07
2022-09-28T08:04:07.486Z,12.16
2022-09-28T08:05:07.458Z,12.13
2022-09-28T08:06:07.457Z,11.99
2022-09-28T08:07:07.453Z,12.02
2022-09-28T08:08:07.469Z,11.96
2022-09-28T08:09:07.423Z,11.94
2022-09-28T08:10:07.400Z,11.83
2022-09-28T08:11:07.417Z,11.86
2022-09-28T08:12:07.379Z,11.91
2022-09-28T08:13:12.412Z,12.04
2022-09-28T08:14:07.355Z,12.20
2022-09-28T08:15:07.345Z,12.10
2022-09-28T08:16:07.342Z,12.21
2022-09-28T08:17:07.324Z,12.29
2022-09-28T08:18:07.337Z,12.32
2022-09-28T08:19:07.301Z,12.39
2022-09-28T08:20:07.289Z,12.35
2022-09-28T08:21:07.295Z,12.41
2022-09-28T08:22:07.265Z,12.42
2022-09-28T08:23:07.337Z,12.50
2022-09-28T08:24:12.293Z,12.67
2022-09-28T08:25:07.233Z,12.71
2022-09-28T08:26:07.233Z,12.68
2022-09-28T08:27:07.216Z,12.70
2022-09-28T08:28:07.231Z,12.82
2022-09-28T08:29:07.187Z,12.90
2022-09-28T08:30:07.177Z,12.90
2022-09-28T08:31:07.378Z,13.03
2022-09-28T08:32:07.153Z,13.03
2022-09-28T08:33:07.145Z,13.10
2022-09-28T08:34:07.136Z,13.15
2022-09-28T08:35:12.147Z,13.08
2022-09-28T08:36:07.130Z,13.12
2022-09-28T08:37:07.101Z,13.12
2022-09-28T08:38:07.089Z,13.07
2022-09-28T08:39:07.098Z,13.03
2022-09-28T08:40:07.064Z,13.04
2022-09-28T08:41:07.066Z,12.96
2022-09-28T08:42:07.043Z,12.87
2022-09-28T08:43:07.035Z,12.85
2022-09-28T08:44:07.017Z,12.89
2022-09-28T08:45:07.018Z,12.74
2022-09-28T08:46:12.098Z,12.71
2022-09-28T08:47:06.985Z,12.82
2022-09-28T08:48:06.978Z,12.70
2022-09-28T08:49:24.130Z,12.68
2022-09-28T08:50:07.953Z,12.70
2022-09-28T08:51:06.945Z,12.67
2022-09-28T08:52:06.953Z,12.65
2022-09-28T08:53:06.919Z,12.67
2022-09-28T08:54:09.558Z,12.60
2022-09-28T08:55:07.930Z,12.59
2022-09-28T08:56:06.884Z,12.53
2022-09-28T08:57:11.914Z,12.53
2022-09-28T08:58:06.862Z,12.49
2022-09-28T08:59:07.606Z,12.53
2022-09-28T09:00:11.073Z,12.52
2022-09-28T09:01:06.904Z,12.50
2022-09-28T09:02:06.906Z,12.52
2022-09-28T09:03:06.809Z,12.52
2022-09-28T09:04:06.798Z,12.62
2022-09-28T09:05:06.831Z,12.68
2022-09-28T09:06:06.775Z,12.71
2022-09-28T09:07:06.777Z,12.83
2022-09-28T09:08:11.778Z,12.74
2022-09-28T09:09:06.912Z,12.87
2022-09-28T09:10:06.787Z,13.00
2022-09-28T09:11:06.813Z,13.05
2022-09-28T09:12:06.712Z,13.05
2022-09-28T09:13:06.699Z,13.12
2022-09-28T09:14:06.685Z,13.17
2022-09-28T09:15:06.681Z,13.03
2022-09-28T09:16:06.683Z,13.05
2022-09-28T09:17:06.698Z,13.01
2022-09-28T09:18:06.660Z,13.05
2022-09-28T09:19:11.651Z,12.96
2022-09-28T09:20:06.616Z,12.89
2022-09-28T09:21:06.651Z,12.92
2022-09-28T09:22:06.607Z,12.93
2022-09-28T09:23:06.611Z,12.87
2022-09-28T09:24:06.572Z,12.74
2022-09-28T09:25:06.563Z,12.74
2022-09-28T09:26:06.550Z,12.82
2022-09-28T09:27:06.571Z,12.85
2022-09-28T09:28:06.527Z,12.77
2022-09-28T09:29:06.522Z,12.87
2022-09-28T09:30:11.531Z,12.92
2022-09-28T09:31:06.572Z,12.96
2022-09-28T09:32:06.509Z,13.00
2022-09-28T09:33:06.487Z,12.96
2022-09-28T09:34:06.464Z,13.22
2022-09-28T09:35:06.453Z,13.30
2022-09-28T09:36:06.441Z,13.22
2022-09-28T09:37:06.441Z,13.28
2022-09-28T09:38:06.417Z,13.30
2022-09-28T09:39:06.411Z,13.29
2022-09-28T09:40:06.415Z,13.08
2022-09-28T09:41:11.408Z,12.93
2022-09-28T09:42:06.382Z,12.93
2022-09-28T09:43:06.385Z,12.90
2022-09-28T09:44:06.375Z,13.03
2022-09-28T09:45:06.340Z,13.00
2022-09-28T09:46:06.389Z,13.00
2022-09-28T09:47:06.334Z,13.03
2022-09-28T09:48:06.309Z,13.01
2022-09-28T09:49:06.297Z,13.01
2022-09-28T09:50:08.459Z,13.00
2022-09-28T09:51:06.276Z,12.96
2022-09-28T09:52:11.291Z,12.90
2022-09-28T09:53:06.260Z,12.92
2022-09-28T09:54:06.252Z,12.89
2022-09-28T09:55:06.234Z,12.87
2022-09-28T09:56:06.223Z,12.87
2022-09-28T09:57:06.253Z,12.87
2022-09-28T09:58:06.196Z,12.89
2022-09-28T09:59:06.211Z,12.85
2022-09-28T10:00:06.185Z,13.01
2022-09-28T10:01:06.215Z,13.11
2022-09-28T10:02:09.869Z,13.33
2022-09-28T10:03:12.162Z,13.49
2022-09-28T10:04:06.128Z,13.75
2022-09-28T10:05:06.118Z,14.04
2022-09-28T10:06:06.130Z,13.96
2022-09-28T10:07:06.119Z,14.09
2022-09-28T10:08:06.094Z,14.03
2022-09-28T10:09:06.077Z,14.07
2022-09-28T10:10:06.072Z,13.97
2022-09-28T10:11:06.053Z,13.99
2022-09-28T10:12:06.054Z,14.17
2022-09-28T10:13:06.030Z,14.07
2022-09-28T10:14:11.067Z,14.12
2022-09-28T10:15:06.008Z,14.10
2022-09-28T10:16:05.998Z,14.07
2022-09-28T10:17:06.056Z,13.99
2022-09-28T10:18:05.978Z,13.95
2022-09-28T10:19:05.961Z,13.89
2022-09-28T10:20:05.953Z,13.89
2022-09-28T10:21:05.940Z,13.87
2022-09-28T10:22:05.945Z,13.92
2022-09-28T10:23:05.920Z,13.89
2022-09-28T10:24:05.909Z,13.82
2022-09-28T10:25:10.936Z,13.59
2022-09-28T10:26:05.881Z,13.70
2022-09-28T10:27:05.882Z,13.60
2022-09-28T10:28:05.869Z,13.64
2022-09-28T10:29:05.846Z,13.95
2022-09-28T10:30:05.854Z,14.21
2022-09-28T10:31:05.912Z,14.61
2022-09-28T10:32:05.832Z,14.91
2022-09-28T10:33:05.809Z,15.31
2022-09-28T10:34:05.789Z,15.27
2022-09-28T10:35:05.785Z,15.14
2022-09-28T10:36:10.791Z,15.06
2022-09-28T10:37:05.761Z,14.88
2022-09-28T10:38:05.755Z,14.83
2022-09-28T10:39:05.736Z,14.73
2022-09-28T10:40:05.725Z,14.72
2022-09-28T10:41:05.795Z,14.70
2022-09-28T10:42:05.717Z,14.72
2022-09-28T10:43:05.702Z,14.75
2022-09-28T10:44:05.678Z,14.72
2022-09-28T10:45:05.677Z,14.61
2022-09-28T10:46:05.716Z,14.69
2022-09-28T10:47:10.727Z,14.72
2022-09-28T10:48:05.634Z,14.78
2022-09-28T10:49:05.622Z,14.91
2022-09-28T10:50:05.616Z,15.07
2022-09-28T10:51:05.603Z,15.16
2022-09-28T10:52:05.589Z,15.23
2022-09-28T10:53:05.588Z,15.13
2022-09-28T10:54:05.566Z,15.06
2022-09-28T10:55:05.559Z,15.02
2022-09-28T10:56:05.579Z,15.06
2022-09-28T10:57:06.810Z,15.16
2022-09-28T10:58:10.555Z,15.01
2022-09-28T10:59:05.513Z,14.89
2022-09-28T11:00:05.506Z,14.88
2022-09-28T11:01:05.536Z,14.98
2022-09-28T11:02:05.587Z,15.13
2022-09-28T11:03:05.488Z,15.13
2022-09-28T11:04:05.452Z,15.10
2022-09-28T11:05:05.444Z,15.13
2022-09-28T11:06:05.437Z,15.01
2022-09-28T11:07:05.422Z,15.11
2022-09-28T11:08:05.426Z,15.19
2022-09-28T11:09:10.541Z,15.17
2022-09-28T11:10:05.386Z,15.13
2022-09-28T11:11:05.379Z,15.16
2022-09-28T11:12:05.380Z,15.29
2022-09-28T11:13:05.366Z,15.25
2022-09-28T11:14:05.349Z,15.28
2022-09-28T11:15:05.341Z,15.23
2022-09-28T11:16:05.321Z,15.19
2022-09-28T11:17:05.353Z,15.20
2022-09-28T11:18:05.326Z,14.99
2022-09-28T11:19:05.288Z,14.95
2022-09-28T11:20:10.308Z,14.86
2022-09-28T11:21:05.308Z,15.03
2022-09-28T11:22:05.266Z,15.35
2022-09-28T11:23:05.242Z,15.39
2022-09-28T11:24:05.237Z,15.51
2022-09-28T11:25:05.223Z,15.35
2022-09-28T11:26:05.214Z,15.16
2022-09-28T11:27:05.218Z,15.03
2022-09-28T11:28:05.187Z,14.86
2022-09-28T11:29:05.175Z,14.69
2022-09-28T11:30:05.256Z,14.54
2022-09-28T11:31:10.287Z,14.52
2022-09-28T11:32:05.219Z,14.47
2022-09-28T11:33:05.142Z,14.39
2022-09-28T11:34:05.139Z,14.40
2022-09-28T11:35:05.112Z,14.37
2022-09-28T11:36:05.103Z,14.36
2022-09-28T11:37:05.096Z,14.36
2022-09-28T11:38:05.099Z,14.28
2022-09-28T11:39:05.064Z,14.32
2022-09-28T11:40:05.200Z,14.24
2022-09-28T11:41:05.083Z,14.22
2022-09-28T11:42:14.140Z,14.18
2022-09-28T11:44:05.006Z,14.17
2022-09-28T11:45:05.016Z,14.22
2022-09-28T11:46:05.019Z,14.25
2022-09-28T11:47:04.973Z,14.28
2022-09-28T11:48:04.973Z,14.32
2022-09-28T11:49:04.960Z,14.37
2022-09-28T11:50:05.010Z,14.46
2022-09-28T11:51:04.927Z,14.45
2022-09-28T11:52:04.917Z,14.39
2022-09-28T11:53:09.949Z,14.35
2022-09-28T11:54:04.898Z,14.43
2022-09-28T11:55:04.882Z,14.33
2022-09-28T11:56:08.715Z,14.32
2022-09-28T11:57:04.864Z,14.24
2022-09-28T11:58:04.873Z,14.18
2022-09-28T11:59:04.839Z,14.22
2022-09-28T12:00:04.868Z,14.22
2022-09-28T12:01:04.816Z,14.25
2022-09-28T12:02:04.958Z,14.32
2022-09-28T12:03:04.949Z,14.29
2022-09-28T12:04:09.812Z,14.29
2022-09-28T12:05:04.774Z,14.39
2022-09-28T12:06:04.812Z,14.50
2022-09-28T12:07:04.758Z,14.50
2022-09-28T12:08:04.751Z,14.68
2022-09-28T12:09:04.727Z,14.72
2022-09-28T12:10:04.750Z,14.65
2022-09-28T12:11:04.710Z,14.72
2022-09-28T12:12:04.728Z,14.72
2022-09-28T12:13:04.685Z,14.61
2022-09-28T12:14:04.673Z,14.64
2022-09-28T12:15:09.705Z,14.78
2022-09-28T12:17:07.930Z,14.75
2022-09-28T12:18:04.817Z,14.72
2022-09-28T12:19:04.618Z,14.75
2022-09-28T12:20:04.605Z,14.64
2022-09-28T12:21:05.343Z,14.64
2022-09-28T12:22:04.605Z,14.64
2022-09-28T12:23:04.595Z,14.72
2022-09-28T12:24:04.563Z,14.64
2022-09-28T12:25:04.552Z,14.75
2022-09-28T12:26:09.561Z,14.57
2022-09-28T12:27:04.532Z,14.58
2022-09-28T12:28:04.525Z,14.58
2022-09-28T12:29:04.503Z,14.58
2022-09-28T12:30:04.497Z,14.55
2022-09-28T12:31:04.546Z,14.45
2022-09-28T12:32:04.472Z,14.37
2022-09-28T12:33:04.472Z,14.36
2022-09-28T12:34:04.458Z,14.32
2022-09-28T12:35:04.458Z,14.36
2022-09-28T12:36:04.425Z,14.35
2022-09-28T12:37:09.453Z,14.32
2022-09-28T12:38:04.412Z,14.40
2022-09-28T12:39:30.815Z,14.36
2022-09-28T12:40:05.979Z,14.39
2022-09-28T12:41:04.460Z,14.45
2022-09-28T12:42:04.356Z,14.42
2022-09-28T12:43:04.353Z,14.45
2022-09-28T12:44:04.331Z,14.39
2022-09-28T12:45:04.318Z,14.33
2022-09-28T12:46:11.934Z,14.32
2022-09-28T12:47:05.383Z,14.42
2022-09-28T12:48:09.322Z,14.40
2022-09-28T12:49:56.346Z,14.35
2022-09-28T12:50:37.516Z,14.37
2022-09-28T12:51:05.249Z,14.33
2022-09-28T12:52:04.240Z,14.22
2022-09-28T12:53:04.268Z,14.35
2022-09-28T12:54:04.216Z,14.21
2022-09-28T12:55:04.245Z,14.27
2022-09-28T12:56:04.204Z,14.33
2022-09-28T12:57:04.190Z,14.22